sensor_id;sensor_type;location;lat;lon;timestamp;P1;durP1;ratioP1;P2;durP2;ratioP2
12968;SDS011;6549;53.128;8.182;2023-04-24T00:00:23;5.97;;;4.88;;
12968;SDS011;6549;53.128;8.182;2023-04-24T00:03:23;7.05;;;5.10;;
12968;SDS011;6549;53.128;8.182;2023-04-24T00:06:25;8.05;;;4.85;;
12968;SDS011;6549;53.128;8.182;2023-04-24T00:09:33;7.78;;;4.72;;
12968;SDS011;6549;53.128;8.182;2023-04-24T00:12:33;7.28;;;4.88;;
12968;SDS011;6549;53.128;8.182;2023-04-24T00:15:33;4.95;;;4.22;;
12968;SDS011;6549;53.128;8.182;2023-04-24T00:18:34;4.63;;;3.70;;
12968;SDS011;6549;53.128;8.182;2023-04-24T00:21:34;3.83;;;2.58;;
12968;SDS011;6549;53.128;8.182;2023-04-24T00:24:35;3.50;;;2.20;;
12968;SDS011;6549;53.128;8.182;2023-04-24T00:27:35;2.85;;;2.25;;
12968;SDS011;6549;53.128;8.182;2023-04-24T00:30:37;2.72;;;2.03;;
12968;SDS011;6549;53.128;8.182;2023-04-24T00:33:37;2.10;;;1.90;;
12968;SDS011;6549;53.128;8.182;2023-04-24T00:36:37;2.58;;;1.80;;
12968;SDS011;6549;53.128;8.182;2023-04-24T00:39:38;1.90;;;1.80;;
12968;SDS011;6549;53.128;8.182;2023-04-24T00:42:39;1.60;;;1.50;;
12968;SDS011;6549;53.128;8.182;2023-04-24T00:45:40;2.30;;;1.80;;
12968;SDS011;6549;53.128;8.182;2023-04-24T00:48:41;2.05;;;1.85;;
12968;SDS011;6549;53.128;8.182;2023-04-24T00:51:41;2.35;;;1.95;;
12968;SDS011;6549;53.128;8.182;2023-04-24T00:54:45;2.65;;;2.33;;
12968;SDS011;6549;53.128;8.182;2023-04-24T00:57:45;2.42;;;2.22;;
12968;SDS011;6549;53.128;8.182;2023-04-24T01:00:46;2.88;;;2.60;;
12968;SDS011;6549;53.128;8.182;2023-04-24T01:03:49;3.60;;;2.80;;
12968;SDS011;6549;53.128;8.182;2023-04-24T01:06:51;3.55;;;2.50;;
12968;SDS011;6549;53.128;8.182;2023-04-24T01:09:51;5.18;;;3.28;;
12968;SDS011;6549;53.128;8.182;2023-04-24T01:12:52;3.40;;;3.10;;
12968;SDS011;6549;53.128;8.182;2023-04-24T01:15:53;3.30;;;3.00;;
12968;SDS011;6549;53.128;8.182;2023-04-24T01:18:53;4.30;;;3.08;;
12968;SDS011;6549;53.128;8.182;2023-04-24T01:21:54;3.58;;;3.17;;
12968;SDS011;6549;53.128;8.182;2023-04-24T01:24:58;4.07;;;3.10;;
12968;SDS011;6549;53.128;8.182;2023-04-24T01:27:59;4.30;;;3.45;;
12968;SDS011;6549;53.128;8.182;2023-04-24T01:30:59;3.65;;;2.90;;
12968;SDS011;6549;53.128;8.182;2023-04-24T01:34:00;5.25;;;3.10;;
12968;SDS011;6549;53.128;8.182;2023-04-24T01:37:00;3.67;;;2.90;;
12968;SDS011;6549;53.128;8.182;2023-04-24T01:40:01;3.10;;;2.80;;
12968;SDS011;6549;53.128;8.182;2023-04-24T01:43:03;3.42;;;3.13;;
12968;SDS011;6549;53.128;8.182;2023-04-24T01:46:03;4.13;;;3.38;;
12968;SDS011;6549;53.128;8.182;2023-04-24T01:49:04;4.40;;;3.55;;
12968;SDS011;6549;53.128;8.182;2023-04-24T01:52:04;4.45;;;3.83;;
12968;SDS011;6549;53.128;8.182;2023-04-24T01:55:05;5.15;;;3.78;;
12968;SDS011;6549;53.128;8.182;2023-04-24T01:58:07;5.85;;;4.07;;
12968;SDS011;6549;53.128;8.182;2023-04-24T02:01:07;5.05;;;4.18;;
12968;SDS011;6549;53.128;8.182;2023-04-24T02:04:07;6.07;;;4.53;;
12968;SDS011;6549;53.128;8.182;2023-04-24T02:07:08;4.90;;;4.40;;
12968;SDS011;6549;53.128;8.182;2023-04-24T02:10:09;4.82;;;4.32;;
12968;SDS011;6549;53.128;8.182;2023-04-24T02:13:10;6.43;;;5.20;;
12968;SDS011;6549;53.128;8.182;2023-04-24T02:16:10;6.35;;;5.70;;
12968;SDS011;6549;53.128;8.182;2023-04-24T02:19:10;6.50;;;5.20;;
12968;SDS011;6549;53.128;8.182;2023-04-24T02:22:11;5.50;;;5.00;;
12968;SDS011;6549;53.128;8.182;2023-04-24T02:25:11;6.45;;;4.90;;
12968;SDS011;6549;53.128;8.182;2023-04-24T02:28:12;6.15;;;4.60;;
12968;SDS011;6549;53.128;8.182;2023-04-24T02:31:12;5.85;;;4.80;;
12968;SDS011;6549;53.128;8.182;2023-04-24T02:34:12;6.53;;;4.93;;
12968;SDS011;6549;53.128;8.182;2023-04-24T02:37:12;6.30;;;4.70;;
12968;SDS011;6549;53.128;8.182;2023-04-24T02:40:13;6.18;;;5.10;;
12968;SDS011;6549;53.128;8.182;2023-04-24T02:43:13;6.55;;;4.63;;
12968;SDS011;6549;53.128;8.182;2023-04-24T02:46:13;5.93;;;4.88;;
12968;SDS011;6549;53.128;8.182;2023-04-24T02:49:14;7.15;;;5.30;;
12968;SDS011;6549;53.128;8.182;2023-04-24T02:52:15;7.00;;;5.43;;
12968;SDS011;6549;53.128;8.182;2023-04-24T02:55:16;6.10;;;4.95;;
12968;SDS011;6549;53.128;8.182;2023-04-24T02:58:17;6.38;;;5.32;;
12968;SDS011;6549;53.128;8.182;2023-04-24T03:04:20;7.53;;;5.88;;
12968;SDS011;6549;53.128;8.182;2023-04-24T03:07:20;7.57;;;5.60;;
12968;SDS011;6549;53.128;8.182;2023-04-24T03:10:20;7.43;;;5.90;;
12968;SDS011;6549;53.128;8.182;2023-04-24T03:13:22;7.57;;;5.70;;
12968;SDS011;6549;53.128;8.182;2023-04-24T03:16:22;7.70;;;6.07;;
12968;SDS011;6549;53.128;8.182;2023-04-24T03:19:23;8.02;;;5.70;;
12968;SDS011;6549;53.128;8.182;2023-04-24T03:22:23;7.03;;;5.35;;
12968;SDS011;6549;53.128;8.182;2023-04-24T03:25:23;7.43;;;5.43;;
12968;SDS011;6549;53.128;8.182;2023-04-24T03:28:24;7.07;;;5.78;;
12968;SDS011;6549;53.128;8.182;2023-04-24T03:31:25;8.32;;;6.07;;
12968;SDS011;6549;53.128;8.182;2023-04-24T03:34:25;8.30;;;5.65;;
12968;SDS011;6549;53.128;8.182;2023-04-24T03:37:25;7.72;;;5.78;;
12968;SDS011;6549;53.128;8.182;2023-04-24T03:40:26;7.78;;;5.90;;
12968;SDS011;6549;53.128;8.182;2023-04-24T03:43:28;7.63;;;6.20;;
12968;SDS011;6549;53.128;8.182;2023-04-24T03:46:28;9.82;;;6.18;;
12968;SDS011;6549;53.128;8.182;2023-04-24T03:49:29;7.38;;;5.40;;
12968;SDS011;6549;53.128;8.182;2023-04-24T03:52:29;8.63;;;5.97;;
12968;SDS011;6549;53.128;8.182;2023-04-24T03:55:29;8.98;;;5.95;;
12968;SDS011;6549;53.128;8.182;2023-04-24T03:58:30;8.02;;;5.82;;
12968;SDS011;6549;53.128;8.182;2023-04-24T04:01:30;8.52;;;6.50;;
12968;SDS011;6549;53.128;8.182;2023-04-24T04:04:30;8.27;;;5.50;;
12968;SDS011;6549;53.128;8.182;2023-04-24T04:07:31;8.00;;;5.35;;
12968;SDS011;6549;53.128;8.182;2023-04-24T04:10:31;6.38;;;5.32;;
12968;SDS011;6549;53.128;8.182;2023-04-24T04:13:31;8.82;;;5.45;;
12968;SDS011;6549;53.128;8.182;2023-04-24T04:16:32;6.70;;;5.28;;
12968;SDS011;6549;53.128;8.182;2023-04-24T04:19:32;7.97;;;5.60;;
12968;SDS011;6549;53.128;8.182;2023-04-24T04:22:32;6.93;;;5.50;;
12968;SDS011;6549;53.128;8.182;2023-04-24T04:25:33;7.57;;;5.80;;
12968;SDS011;6549;53.128;8.182;2023-04-24T04:28:33;7.75;;;6.22;;
12968;SDS011;6549;53.128;8.182;2023-04-24T04:31:34;8.85;;;6.82;;
12968;SDS011;6549;53.128;8.182;2023-04-24T04:34:35;9.77;;;7.18;;
12968;SDS011;6549;53.128;8.182;2023-04-24T04:37:37;10.20;;;7.18;;
12968;SDS011;6549;53.128;8.182;2023-04-24T04:40:38;9.32;;;7.22;;
12968;SDS011;6549;53.128;8.182;2023-04-24T04:43:38;10.93;;;7.38;;
12968;SDS011;6549;53.128;8.182;2023-04-24T04:46:40;9.48;;;7.22;;
12968;SDS011;6549;53.128;8.182;2023-04-24T04:49:41;9.75;;;7.93;;
12968;SDS011;6549;53.128;8.182;2023-04-24T04:52:43;9.98;;;7.75;;
12968;SDS011;6549;53.128;8.182;2023-04-24T04:55:43;9.98;;;7.68;;
12968;SDS011;6549;53.128;8.182;2023-04-24T04:58:43;9.68;;;7.93;;
12968;SDS011;6549;53.128;8.182;2023-04-24T05:01:44;11.50;;;8.02;;
12968;SDS011;6549;53.128;8.182;2023-04-24T05:04:44;10.05;;;7.65;;
12968;SDS011;6549;53.128;8.182;2023-04-24T05:07:45;11.15;;;7.78;;
12968;SDS011;6549;53.128;8.182;2023-04-24T05:10:45;11.18;;;7.60;;
12968;SDS011;6549;53.128;8.182;2023-04-24T05:13:45;10.88;;;7.70;;
12968;SDS011;6549;53.128;8.182;2023-04-24T05:16:46;11.50;;;8.68;;
12968;SDS011;6549;53.128;8.182;2023-04-24T05:19:46;11.80;;;8.23;;
12968;SDS011;6549;53.128;8.182;2023-04-24T05:22:46;12.20;;;8.52;;
12968;SDS011;6549;53.128;8.182;2023-04-24T05:25:47;11.68;;;8.52;;
12968;SDS011;6549;53.128;8.182;2023-04-24T05:28:47;13.20;;;9.45;;
12968;SDS011;6549;53.128;8.182;2023-04-24T05:31:47;10.38;;;7.93;;
12968;SDS011;6549;53.128;8.182;2023-04-24T05:34:48;10.85;;;8.15;;
12968;SDS011;6549;53.128;8.182;2023-04-24T05:37:48;10.95;;;8.63;;
12968;SDS011;6549;53.128;8.182;2023-04-24T05:40:48;11.73;;;8.43;;
12968;SDS011;6549;53.128;8.182;2023-04-24T05:43:49;11.95;;;8.25;;
12968;SDS011;6549;53.128;8.182;2023-04-24T05:46:49;12.45;;;8.57;;
12968;SDS011;6549;53.128;8.182;2023-04-24T05:49:50;13.45;;;8.75;;
12968;SDS011;6549;53.128;8.182;2023-04-24T05:52:50;12.82;;;8.73;;
12968;SDS011;6549;53.128;8.182;2023-04-24T05:55:50;11.30;;;8.48;;
12968;SDS011;6549;53.128;8.182;2023-04-24T05:58:50;12.48;;;8.75;;
12968;SDS011;6549;53.128;8.182;2023-04-24T06:01:51;11.60;;;8.85;;
12968;SDS011;6549;53.128;8.182;2023-04-24T06:04:51;12.50;;;8.30;;
12968;SDS011;6549;53.128;8.182;2023-04-24T06:07:51;12.52;;;8.48;;
12968;SDS011;6549;53.128;8.182;2023-04-24T06:10:52;13.02;;;8.60;;
12968;SDS011;6549;53.128;8.182;2023-04-24T06:13:52;11.50;;;7.97;;
12968;SDS011;6549;53.128;8.182;2023-04-24T06:16:52;12.18;;;7.72;;
12968;SDS011;6549;53.128;8.182;2023-04-24T06:19:53;10.38;;;7.70;;
12968;SDS011;6549;53.128;8.182;2023-04-24T06:22:53;11.60;;;8.52;;
12968;SDS011;6549;53.128;8.182;2023-04-24T06:25:53;11.80;;;8.65;;
12968;SDS011;6549;53.128;8.182;2023-04-24T06:28:54;12.98;;;9.02;;
12968;SDS011;6549;53.128;8.182;2023-04-24T06:31:54;11.52;;;8.40;;
12968;SDS011;6549;53.128;8.182;2023-04-24T06:34:55;13.55;;;8.88;;
12968;SDS011;6549;53.128;8.182;2023-04-24T06:37:55;13.15;;;9.25;;
12968;SDS011;6549;53.128;8.182;2023-04-24T06:40:56;14.57;;;9.63;;
12968;SDS011;6549;53.128;8.182;2023-04-24T06:43:56;13.80;;;9.98;;
12968;SDS011;6549;53.128;8.182;2023-04-24T06:46:56;12.23;;;9.23;;
12968;SDS011;6549;53.128;8.182;2023-04-24T06:49:57;11.75;;;9.15;;
12968;SDS011;6549;53.128;8.182;2023-04-24T06:52:58;10.55;;;8.77;;
12968;SDS011;6549;53.128;8.182;2023-04-24T06:55:58;13.10;;;8.52;;
12968;SDS011;6549;53.128;8.182;2023-04-24T06:58:58;15.73;;;10.15;;
12968;SDS011;6549;53.128;8.182;2023-04-24T07:01:59;13.35;;;9.50;;
12968;SDS011;6549;53.128;8.182;2023-04-24T07:04:59;13.00;;;9.63;;
12968;SDS011;6549;53.128;8.182;2023-04-24T07:07:59;11.25;;;9.38;;
12968;SDS011;6549;53.128;8.182;2023-04-24T07:11:00;11.23;;;9.27;;
12968;SDS011;6549;53.128;8.182;2023-04-24T07:14:01;13.05;;;9.77;;
12968;SDS011;6549;53.128;8.182;2023-04-24T07:17:02;13.23;;;10.13;;
12968;SDS011;6549;53.128;8.182;2023-04-24T07:20:03;12.95;;;9.80;;
12968;SDS011;6549;53.128;8.182;2023-04-24T07:23:04;12.32;;;9.70;;
12968;SDS011;6549;53.128;8.182;2023-04-24T07:26:04;13.02;;;10.20;;
12968;SDS011;6549;53.128;8.182;2023-04-24T07:29:05;12.43;;;9.82;;
12968;SDS011;6549;53.128;8.182;2023-04-24T07:32:06;14.07;;;10.68;;
12968;SDS011;6549;53.128;8.182;2023-04-24T07:35:06;12.43;;;9.60;;
12968;SDS011;6549;53.128;8.182;2023-04-24T07:38:06;13.75;;;9.85;;
12968;SDS011;6549;53.128;8.182;2023-04-24T07:41:07;12.77;;;9.77;;
12968;SDS011;6549;53.128;8.182;2023-04-24T07:44:07;12.48;;;9.45;;
12968;SDS011;6549;53.128;8.182;2023-04-24T07:47:07;13.52;;;10.30;;
12968;SDS011;6549;53.128;8.182;2023-04-24T07:50:08;12.65;;;9.27;;
12968;SDS011;6549;53.128;8.182;2023-04-24T07:53:09;12.40;;;9.93;;
12968;SDS011;6549;53.128;8.182;2023-04-24T07:56:09;12.75;;;9.48;;
12968;SDS011;6549;53.128;8.182;2023-04-24T07:59:10;12.80;;;9.52;;
12968;SDS011;6549;53.128;8.182;2023-04-24T08:05:36;12.48;;;8.40;;
12968;SDS011;6549;53.128;8.182;2023-04-24T08:08:37;10.15;;;8.50;;
12968;SDS011;6549;53.128;8.182;2023-04-24T08:11:37;11.50;;;8.13;;
12968;SDS011;6549;53.128;8.182;2023-04-24T08:14:39;12.03;;;8.70;;
12968;SDS011;6549;53.128;8.182;2023-04-24T08:17:39;11.05;;;8.60;;
12968;SDS011;6549;53.128;8.182;2023-04-24T08:20:40;10.75;;;8.23;;
12968;SDS011;6549;53.128;8.182;2023-04-24T08:23:40;10.50;;;7.63;;
12968;SDS011;6549;53.128;8.182;2023-04-24T08:26:41;9.48;;;7.93;;
12968;SDS011;6549;53.128;8.182;2023-04-24T08:29:41;9.25;;;7.45;;
12968;SDS011;6549;53.128;8.182;2023-04-24T08:32:41;10.35;;;7.32;;
12968;SDS011;6549;53.128;8.182;2023-04-24T08:35:42;10.77;;;7.30;;
12968;SDS011;6549;53.128;8.182;2023-04-24T08:38:42;10.13;;;7.32;;
12968;SDS011;6549;53.128;8.182;2023-04-24T08:41:43;8.25;;;6.30;;
12968;SDS011;6549;53.128;8.182;2023-04-24T08:44:43;10.57;;;6.88;;
12968;SDS011;6549;53.128;8.182;2023-04-24T08:47:44;11.57;;;6.50;;
12968;SDS011;6549;53.128;8.182;2023-04-24T08:50:45;8.82;;;6.13;;
12968;SDS011;6549;53.128;8.182;2023-04-24T08:53:47;8.47;;;6.77;;
12968;SDS011;6549;53.128;8.182;2023-04-24T08:56:48;9.25;;;6.93;;
12968;SDS011;6549;53.128;8.182;2023-04-24T08:59:48;9.35;;;7.00;;
12968;SDS011;6549;53.128;8.182;2023-04-24T09:02:49;10.07;;;7.28;;
12968;SDS011;6549;53.128;8.182;2023-04-24T09:05:52;8.70;;;6.40;;
12968;SDS011;6549;53.128;8.182;2023-04-24T09:08:55;10.00;;;6.40;;
12968;SDS011;6549;53.128;8.182;2023-04-24T09:11:56;9.02;;;6.05;;
12968;SDS011;6549;53.128;8.182;2023-04-24T09:14:57;9.85;;;6.60;;
12968;SDS011;6549;53.128;8.182;2023-04-24T09:17:58;9.00;;;6.40;;
12968;SDS011;6549;53.128;8.182;2023-04-24T09:21:03;8.90;;;6.43;;
12968;SDS011;6549;53.128;8.182;2023-04-24T09:24:07;8.45;;;6.40;;
12968;SDS011;6549;53.128;8.182;2023-04-24T09:27:14;11.50;;;6.50;;
12968;SDS011;6549;53.128;8.182;2023-04-24T09:30:19;7.90;;;6.35;;
12968;SDS011;6549;53.128;8.182;2023-04-24T09:33:21;8.15;;;6.05;;
12968;SDS011;6549;53.128;8.182;2023-04-24T09:36:28;9.70;;;6.80;;
12968;SDS011;6549;53.128;8.182;2023-04-24T09:39:29;8.52;;;6.82;;
12968;SDS011;6549;53.128;8.182;2023-04-24T09:42:29;9.70;;;7.47;;
12968;SDS011;6549;53.128;8.182;2023-04-24T09:45:35;11.32;;;7.30;;
12968;SDS011;6549;53.128;8.182;2023-04-24T09:48:37;9.93;;;7.78;;
12968;SDS011;6549;53.128;8.182;2023-04-24T09:51:38;10.25;;;7.43;;
12968;SDS011;6549;53.128;8.182;2023-04-24T09:54:39;8.27;;;6.70;;
12968;SDS011;6549;53.128;8.182;2023-04-24T09:57:49;13.27;;;7.60;;
12968;SDS011;6549;53.128;8.182;2023-04-24T10:01:05;11.10;;;7.20;;
12968;SDS011;6549;53.128;8.182;2023-04-24T10:04:05;8.95;;;6.50;;
12968;SDS011;6549;53.128;8.182;2023-04-24T10:07:05;8.85;;;5.88;;
12968;SDS011;6549;53.128;8.182;2023-04-24T10:10:09;6.95;;;5.15;;
12968;SDS011;6549;53.128;8.182;2023-04-24T10:13:10;9.07;;;5.60;;
12968;SDS011;6549;53.128;8.182;2023-04-24T10:16:12;6.13;;;4.70;;
12968;SDS011;6549;53.128;8.182;2023-04-24T10:19:14;6.63;;;4.70;;
12968;SDS011;6549;53.128;8.182;2023-04-24T10:22:15;6.35;;;4.57;;
12968;SDS011;6549;53.128;8.182;2023-04-24T10:25:17;5.90;;;3.80;;
12968;SDS011;6549;53.128;8.182;2023-04-24T10:28:19;5.53;;;3.90;;
12968;SDS011;6549;53.128;8.182;2023-04-24T10:31:21;6.47;;;4.00;;
12968;SDS011;6549;53.128;8.182;2023-04-24T10:34:21;5.30;;;3.15;;
12968;SDS011;6549;53.128;8.182;2023-04-24T10:37:23;5.03;;;3.28;;
12968;SDS011;6549;53.128;8.182;2023-04-24T10:40:26;6.32;;;3.33;;
12968;SDS011;6549;53.128;8.182;2023-04-24T10:43:30;4.88;;;3.33;;
12968;SDS011;6549;53.128;8.182;2023-04-24T10:46:33;4.22;;;2.97;;
12968;SDS011;6549;53.128;8.182;2023-04-24T10:49:35;5.53;;;3.37;;
12968;SDS011;6549;53.128;8.182;2023-04-24T10:52:45;4.35;;;3.30;;
12968;SDS011;6549;53.128;8.182;2023-04-24T10:55:51;4.43;;;3.50;;
12968;SDS011;6549;53.128;8.182;2023-04-24T10:58:58;4.75;;;3.53;;
12968;SDS011;6549;53.128;8.182;2023-04-24T11:01:58;5.68;;;3.58;;
12968;SDS011;6549;53.128;8.182;2023-04-24T11:05:00;6.68;;;4.25;;
12968;SDS011;6549;53.128;8.182;2023-04-24T11:08:21;7.32;;;4.63;;
12968;SDS011;6549;53.128;8.182;2023-04-24T11:11:24;8.07;;;4.22;;
12968;SDS011;6549;53.128;8.182;2023-04-24T11:14:29;6.20;;;4.10;;
12968;SDS011;6549;53.128;8.182;2023-04-24T11:17:30;7.07;;;3.90;;
12968;SDS011;6549;53.128;8.182;2023-04-24T11:20:33;10.15;;;6.38;;
12968;SDS011;6549;53.128;8.182;2023-04-24T11:23:35;6.10;;;4.38;;
12968;SDS011;6549;53.128;8.182;2023-04-24T11:26:37;6.07;;;3.67;;
12968;SDS011;6549;53.128;8.182;2023-04-24T11:29:48;7.45;;;4.20;;
12968;SDS011;6549;53.128;8.182;2023-04-24T11:33:02;7.00;;;4.03;;
12968;SDS011;6549;53.128;8.182;2023-04-24T11:36:04;7.63;;;4.68;;
12968;SDS011;6549;53.128;8.182;2023-04-24T11:39:05;5.50;;;3.80;;
12968;SDS011;6549;53.128;8.182;2023-04-24T11:42:06;4.38;;;3.30;;
12968;SDS011;6549;53.128;8.182;2023-04-24T11:45:09;6.13;;;2.92;;
12968;SDS011;6549;53.128;8.182;2023-04-24T11:48:18;3.78;;;2.80;;
12968;SDS011;6549;53.128;8.182;2023-04-24T11:51:18;4.00;;;2.80;;
12968;SDS011;6549;53.128;8.182;2023-04-24T11:54:19;8.68;;;5.25;;
12968;SDS011;6549;53.128;8.182;2023-04-24T11:57:20;10.55;;;6.60;;
12968;SDS011;6549;53.128;8.182;2023-04-24T12:00:24;9.15;;;6.50;;
12968;SDS011;6549;53.128;8.182;2023-04-24T12:03:26;13.38;;;7.50;;
12968;SDS011;6549;53.128;8.182;2023-04-24T12:06:27;12.00;;;7.50;;
12968;SDS011;6549;53.128;8.182;2023-04-24T12:09:27;13.52;;;8.90;;
12968;SDS011;6549;53.128;8.182;2023-04-24T12:12:28;13.10;;;9.20;;
12968;SDS011;6549;53.128;8.182;2023-04-24T12:15:28;12.90;;;9.02;;
12968;SDS011;6549;53.128;8.182;2023-04-24T12:18:29;14.40;;;10.55;;
12968;SDS011;6549;53.128;8.182;2023-04-24T12:21:29;13.57;;;9.90;;
12968;SDS011;6549;53.128;8.182;2023-04-24T12:24:33;17.98;;;10.10;;
12968;SDS011;6549;53.128;8.182;2023-04-24T12:27:33;15.95;;;11.25;;
12968;SDS011;6549;53.128;8.182;2023-04-24T12:30:35;15.10;;;10.80;;
12968;SDS011;6549;53.128;8.182;2023-04-24T12:33:41;19.17;;;11.07;;
12968;SDS011;6549;53.128;8.182;2023-04-24T12:36:42;13.57;;;8.20;;
12968;SDS011;6549;53.128;8.182;2023-04-24T12:43:13;11.20;;;6.55;;
12968;SDS011;6549;53.128;8.182;2023-04-24T12:46:18;9.70;;;6.13;;
12968;SDS011;6549;53.128;8.182;2023-04-24T12:49:19;12.35;;;6.93;;
12968;SDS011;6549;53.128;8.182;2023-04-24T12:52:19;11.07;;;6.57;;
12968;SDS011;6549;53.128;8.182;2023-04-24T12:55:24;12.18;;;7.00;;
12968;SDS011;6549;53.128;8.182;2023-04-24T12:58:25;13.18;;;7.70;;
12968;SDS011;6549;53.128;8.182;2023-04-24T13:01:26;11.30;;;7.25;;
12968;SDS011;6549;53.128;8.182;2023-04-24T13:04:26;13.73;;;8.40;;
12968;SDS011;6549;53.128;8.182;2023-04-24T13:07:27;16.83;;;8.05;;
12968;SDS011;6549;53.128;8.182;2023-04-24T13:10:27;14.60;;;7.18;;
12968;SDS011;6549;53.128;8.182;2023-04-24T13:13:28;13.65;;;7.57;;
12968;SDS011;6549;53.128;8.182;2023-04-24T13:16:28;15.48;;;6.55;;
12968;SDS011;6549;53.128;8.182;2023-04-24T13:19:29;11.32;;;6.60;;
12968;SDS011;6549;53.128;8.182;2023-04-24T13:22:29;11.20;;;6.57;;
12968;SDS011;6549;53.128;8.182;2023-04-24T13:25:34;11.85;;;6.35;;
12968;SDS011;6549;53.128;8.182;2023-04-24T13:28:36;10.35;;;5.45;;
12968;SDS011;6549;53.128;8.182;2023-04-24T13:31:38;12.57;;;5.55;;
12968;SDS011;6549;53.128;8.182;2023-04-24T13:34:38;9.50;;;5.25;;
12968;SDS011;6549;53.128;8.182;2023-04-24T13:37:38;12.88;;;5.10;;
12968;SDS011;6549;53.128;8.182;2023-04-24T13:40:39;10.75;;;5.05;;
12968;SDS011;6549;53.128;8.182;2023-04-24T13:43:39;11.13;;;5.75;;
12968;SDS011;6549;53.128;8.182;2023-04-24T13:46:42;13.30;;;5.88;;
12968;SDS011;6549;53.128;8.182;2023-04-24T13:52:44;11.30;;;5.70;;
12968;SDS011;6549;53.128;8.182;2023-04-24T13:55:45;11.13;;;4.93;;
12968;SDS011;6549;53.128;8.182;2023-04-24T13:58:45;13.98;;;5.15;;
12968;SDS011;6549;53.128;8.182;2023-04-24T14:01:46;11.70;;;5.07;;
12968;SDS011;6549;53.128;8.182;2023-04-24T14:04:46;9.13;;;4.60;;
12968;SDS011;6549;53.128;8.182;2023-04-24T14:07:48;10.18;;;5.53;;
12968;SDS011;6549;53.128;8.182;2023-04-24T14:10:48;11.63;;;6.22;;
12968;SDS011;6549;53.128;8.182;2023-04-24T14:13:50;9.70;;;5.47;;
12968;SDS011;6549;53.128;8.182;2023-04-24T14:16:50;8.27;;;5.00;;
12968;SDS011;6549;53.128;8.182;2023-04-24T14:19:51;11.88;;;5.38;;
12968;SDS011;6549;53.128;8.182;2023-04-24T14:22:54;10.85;;;5.13;;
12968;SDS011;6549;53.128;8.182;2023-04-24T14:25:55;8.90;;;4.72;;
12968;SDS011;6549;53.128;8.182;2023-04-24T14:28:56;7.22;;;3.45;;
12968;SDS011;6549;53.128;8.182;2023-04-24T14:31:58;11.10;;;3.70;;
12968;SDS011;6549;53.128;8.182;2023-04-24T14:34:59;9.93;;;3.40;;
12968;SDS011;6549;53.128;8.182;2023-04-24T14:37:59;9.18;;;3.40;;
12968;SDS011;6549;53.128;8.182;2023-04-24T14:40:59;7.45;;;3.45;;
12968;SDS011;6549;53.128;8.182;2023-04-24T14:44:02;8.73;;;3.40;;
12968;SDS011;6549;53.128;8.182;2023-04-24T14:47:03;7.22;;;3.30;;
12968;SDS011;6549;53.128;8.182;2023-04-24T14:50:04;7.82;;;3.22;;
12968;SDS011;6549;53.128;8.182;2023-04-24T14:53:05;6.40;;;2.92;;
12968;SDS011;6549;53.128;8.182;2023-04-24T14:56:05;10.68;;;3.80;;
12968;SDS011;6549;53.128;8.182;2023-04-24T14:59:06;11.43;;;3.45;;
12968;SDS011;6549;53.128;8.182;2023-04-24T15:02:07;10.05;;;3.33;;
12968;SDS011;6549;53.128;8.182;2023-04-24T15:05:07;6.45;;;3.38;;
12968;SDS011;6549;53.128;8.182;2023-04-24T15:08:08;7.88;;;3.53;;
12968;SDS011;6549;53.128;8.182;2023-04-24T15:11:11;8.85;;;3.42;;
12968;SDS011;6549;53.128;8.182;2023-04-24T15:14:12;5.60;;;3.40;;
12968;SDS011;6549;53.128;8.182;2023-04-24T15:17:21;7.70;;;3.53;;
12968;SDS011;6549;53.128;8.182;2023-04-24T15:20:21;7.10;;;3.28;;
12968;SDS011;6549;53.128;8.182;2023-04-24T15:23:22;5.80;;;3.30;;
12968;SDS011;6549;53.128;8.182;2023-04-24T15:26:22;6.13;;;3.00;;
12968;SDS011;6549;53.128;8.182;2023-04-24T15:29:23;8.10;;;3.22;;
12968;SDS011;6549;53.128;8.182;2023-04-24T15:32:24;6.30;;;3.30;;
12968;SDS011;6549;53.128;8.182;2023-04-24T15:35:25;5.72;;;2.70;;
12968;SDS011;6549;53.128;8.182;2023-04-24T15:38:26;4.43;;;2.58;;
12968;SDS011;6549;53.128;8.182;2023-04-24T15:41:26;5.93;;;2.88;;
12968;SDS011;6549;53.128;8.182;2023-04-24T15:44:26;6.82;;;2.88;;
12968;SDS011;6549;53.128;8.182;2023-04-24T15:47:26;6.80;;;2.80;;
12968;SDS011;6549;53.128;8.182;2023-04-24T15:50:27;5.80;;;2.63;;
12968;SDS011;6549;53.128;8.182;2023-04-24T15:53:28;6.07;;;2.63;;
12968;SDS011;6549;53.128;8.182;2023-04-24T15:56:29;6.18;;;2.85;;
12968;SDS011;6549;53.128;8.182;2023-04-24T15:59:30;6.10;;;3.05;;
12968;SDS011;6549;53.128;8.182;2023-04-24T16:02:30;4.90;;;2.88;;
12968;SDS011;6549;53.128;8.182;2023-04-24T16:05:30;6.07;;;3.03;;
12968;SDS011;6549;53.128;8.182;2023-04-24T16:08:31;6.55;;;3.25;;
12968;SDS011;6549;53.128;8.182;2023-04-24T16:11:32;7.18;;;3.35;;
12968;SDS011;6549;53.128;8.182;2023-04-24T16:14:35;7.05;;;3.65;;
12968;SDS011;6549;53.128;8.182;2023-04-24T16:17:36;7.25;;;3.47;;
12968;SDS011;6549;53.128;8.182;2023-04-24T16:20:37;6.10;;;3.53;;
12968;SDS011;6549;53.128;8.182;2023-04-24T16:23:37;4.60;;;2.80;;
12968;SDS011;6549;53.128;8.182;2023-04-24T16:26:38;5.10;;;2.80;;
12968;SDS011;6549;53.128;8.182;2023-04-24T16:29:39;7.97;;;2.88;;
12968;SDS011;6549;53.128;8.182;2023-04-24T16:32:39;4.85;;;2.47;;
12968;SDS011;6549;53.128;8.182;2023-04-24T16:35:39;4.65;;;2.63;;
12968;SDS011;6549;53.128;8.182;2023-04-24T16:38:39;3.97;;;2.22;;
12968;SDS011;6549;53.128;8.182;2023-04-24T16:41:40;7.60;;;2.53;;
12968;SDS011;6549;53.128;8.182;2023-04-24T16:44:41;5.03;;;2.38;;
12968;SDS011;6549;53.128;8.182;2023-04-24T16:47:42;5.03;;;2.22;;
12968;SDS011;6549;53.128;8.182;2023-04-24T16:50:42;5.20;;;1.95;;
12968;SDS011;6549;53.128;8.182;2023-04-24T16:53:42;5.28;;;2.17;;
12968;SDS011;6549;53.128;8.182;2023-04-24T16:56:43;7.32;;;2.35;;
12968;SDS011;6549;53.128;8.182;2023-04-24T16:59:43;6.28;;;2.20;;
12968;SDS011;6549;53.128;8.182;2023-04-24T17:02:43;4.30;;;2.13;;
12968;SDS011;6549;53.128;8.182;2023-04-24T17:05:47;5.32;;;2.47;;
12968;SDS011;6549;53.128;8.182;2023-04-24T17:08:48;6.82;;;2.78;;
12968;SDS011;6549;53.128;8.182;2023-04-24T17:11:48;9.13;;;2.90;;
12968;SDS011;6549;53.128;8.182;2023-04-24T17:14:49;7.65;;;3.13;;
12968;SDS011;6549;53.128;8.182;2023-04-24T17:17:49;8.95;;;3.20;;
12968;SDS011;6549;53.128;8.182;2023-04-24T17:20:50;7.30;;;3.05;;
12968;SDS011;6549;53.128;8.182;2023-04-24T17:23:50;6.75;;;3.10;;
12968;SDS011;6549;53.128;8.182;2023-04-24T17:26:51;5.75;;;2.50;;
12968;SDS011;6549;53.128;8.182;2023-04-24T17:29:51;8.43;;;3.40;;
12968;SDS011;6549;53.128;8.182;2023-04-24T17:32:51;6.63;;;3.05;;
12968;SDS011;6549;53.128;8.182;2023-04-24T17:35:52;8.00;;;3.28;;
12968;SDS011;6549;53.128;8.182;2023-04-24T17:38:53;9.02;;;3.13;;
12968;SDS011;6549;53.128;8.182;2023-04-24T17:41:53;10.85;;;2.90;;
12968;SDS011;6549;53.128;8.182;2023-04-24T17:44:53;9.82;;;2.90;;
12968;SDS011;6549;53.128;8.182;2023-04-24T17:47:54;9.70;;;3.28;;
12968;SDS011;6549;53.128;8.182;2023-04-24T17:50:55;7.85;;;2.65;;
12968;SDS011;6549;53.128;8.182;2023-04-24T17:53:56;10.60;;;3.65;;
12968;SDS011;6549;53.128;8.182;2023-04-24T17:56:56;10.52;;;3.70;;
12968;SDS011;6549;53.128;8.182;2023-04-24T17:59:56;8.88;;;3.45;;
12968;SDS011;6549;53.128;8.182;2023-04-24T18:02:57;8.82;;;3.78;;
12968;SDS011;6549;53.128;8.182;2023-04-24T18:09:00;7.17;;;3.20;;
12968;SDS011;6549;53.128;8.182;2023-04-24T18:12:00;6.60;;;3.15;;
12968;SDS011;6549;53.128;8.182;2023-04-24T18:15:00;11.95;;;3.45;;
12968;SDS011;6549;53.128;8.182;2023-04-24T18:18:01;8.85;;;3.30;;
12968;SDS011;6549;53.128;8.182;2023-04-24T18:21:01;10.15;;;3.58;;
12968;SDS011;6549;53.128;8.182;2023-04-24T18:24:02;7.75;;;3.35;;
12968;SDS011;6549;53.128;8.182;2023-04-24T18:27:03;8.60;;;3.50;;
12968;SDS011;6549;53.128;8.182;2023-04-24T18:30:03;11.75;;;3.30;;
12968;SDS011;6549;53.128;8.182;2023-04-24T18:33:05;10.60;;;3.40;;
12968;SDS011;6549;53.128;8.182;2023-04-24T18:36:06;9.93;;;3.22;;